sensor_id;sensor_type;location;lat;lon;timestamp;temperature;humidity
71096;DHT22;58753;49.440;11.126;2023-04-24T00:02:16;10.25;94.01
71096;DHT22;58753;49.440;11.126;2023-04-24T00:04:41;10.27;94.05
71096;DHT22;58753;49.440;11.126;2023-04-24T00:07:10;10.27;93.96
71096;DHT22;58753;49.440;11.126;2023-04-24T00:09:35;10.21;94.07
71096;DHT22;58753;49.440;11.126;2023-04-24T00:12:01;10.24;94.22
71096;DHT22;58753;49.440;11.126;2023-04-24T00:14:30;10.21;94.18
71096;DHT22;58753;49.440;11.126;2023-04-24T00:16:55;10.24;94.13
71096;DHT22;58753;49.440;11.126;2023-04-24T00:19:20;10.24;94.09
71096;DHT22;58753;49.440;11.126;2023-04-24T00:21:46;10.20;94.13
71096;DHT22;58753;49.440;11.126;2023-04-24T00:24:15;10.18;94.17
71096;DHT22;58753;49.440;11.126;2023-04-24T00:26:40;10.18;94.12
71096;DHT22;58753;49.440;11.126;2023-04-24T00:29:06;10.18;94.17
71096;DHT22;58753;49.440;11.126;2023-04-24T00:31:31;10.18;94.32
71096;DHT22;58753;49.440;11.126;2023-04-24T00:34:00;10.16;94.18
71096;DHT22;58753;49.440;11.126;2023-04-24T00:36:25;10.12;94.16
71096;DHT22;58753;49.440;11.126;2023-04-24T00:38:52;10.10;94.25
71096;DHT22;58753;49.440;11.126;2023-04-24T00:41:17;10.07;94.19
71096;DHT22;58753;49.440;11.126;2023-04-24T00:43:43;10.07;94.33
71096;DHT22;58753;49.440;11.126;2023-04-24T00:46:08;10.07;94.36
71096;DHT22;58753;49.440;11.126;2023-04-24T00:48:34;10.06;94.39
71096;DHT22;58753;49.440;11.126;2023-04-24T00:51:00;10.07;94.41
71096;DHT22;58753;49.440;11.126;2023-04-24T00:53:25;10.04;94.41
71096;DHT22;58753;49.440;11.126;2023-04-24T00:55:50;10.04;94.39
71096;DHT22;58753;49.440;11.126;2023-04-24T00:58:16;10.04;94.46
71096;DHT22;58753;49.440;11.126;2023-04-24T01:00:42;10.03;94.57
71096;DHT22;58753;49.440;11.126;2023-04-24T01:03:08;10.04;94.57
71096;DHT22;58753;49.440;11.126;2023-04-24T01:05:33;10.04;94.52
71096;DHT22;58753;49.440;11.126;2023-04-24T01:07:59;10.00;94.47
71096;DHT22;58753;49.440;11.126;2023-04-24T01:10:27;9.99;94.58
71096;DHT22;58753;49.440;11.126;2023-04-24T01:12:52;9.99;94.52
71096;DHT22;58753;49.440;11.126;2023-04-24T01:15:18;9.96;94.55
71096;DHT22;58753;49.440;11.126;2023-04-24T01:17:43;9.97;94.57
71096;DHT22;58753;49.440;11.126;2023-04-24T01:20:09;9.96;94.50
71096;DHT22;58753;49.440;11.126;2023-04-24T01:22:36;9.90;94.45
71096;DHT22;58753;49.440;11.126;2023-04-24T01:25:02;9.87;94.53
71096;DHT22;58753;49.440;11.126;2023-04-24T01:27:28;9.86;94.61
71096;DHT22;58753;49.440;11.126;2023-04-24T01:29:54;9.85;94.56
71096;DHT22;58753;49.440;11.126;2023-04-24T01:32:19;9.86;94.74
71096;DHT22;58753;49.440;11.126;2023-04-24T01:34:46;9.83;94.63
71096;DHT22;58753;49.440;11.126;2023-04-24T01:37:11;9.82;94.70
71096;DHT22;58753;49.440;11.126;2023-04-24T01:39:37;9.85;94.76
71096;DHT22;58753;49.440;11.126;2023-04-24T01:42:02;9.86;94.67
71096;DHT22;58753;49.440;11.126;2023-04-24T01:44:30;9.83;94.65
71096;DHT22;58753;49.440;11.126;2023-04-24T01:46:55;9.85;94.83
71096;DHT22;58753;49.440;11.126;2023-04-24T01:49:21;9.85;94.73
71096;DHT22;58753;49.440;11.126;2023-04-24T01:51:46;9.87;94.81
71096;DHT22;58753;49.440;11.126;2023-04-24T01:54:12;9.86;94.64
71096;DHT22;58753;49.440;11.126;2023-04-24T01:56:40;9.86;94.81
71096;DHT22;58753;49.440;11.126;2023-04-24T01:59:07;9.87;94.72
71096;DHT22;58753;49.440;11.126;2023-04-24T02:01:34;9.86;94.65
71096;DHT22;58753;49.440;11.126;2023-04-24T02:04:01;9.85;94.55
71096;DHT22;58753;49.440;11.126;2023-04-24T02:06:26;9.86;94.81
71096;DHT22;58753;49.440;11.126;2023-04-24T02:08:51;9.87;94.77
71096;DHT22;58753;49.440;11.126;2023-04-24T02:11:17;9.90;94.85
71096;DHT22;58753;49.440;11.126;2023-04-24T02:13:43;9.90;94.86
71096;DHT22;58753;49.440;11.126;2023-04-24T02:16:09;9.89;94.77
71096;DHT22;58753;49.440;11.126;2023-04-24T02:18:34;9.89;94.76
71096;DHT22;58753;49.440;11.126;2023-04-24T02:21:00;9.87;94.66
71096;DHT22;58753;49.440;11.126;2023-04-24T02:23:25;9.83;94.62
71096;DHT22;58753;49.440;11.126;2023-04-24T02:25:52;9.80;94.66
71096;DHT22;58753;49.440;11.126;2023-04-24T02:28:18;9.78;94.88
71096;DHT22;58753;49.440;11.126;2023-04-24T02:30:44;9.76;94.73
71096;DHT22;58753;49.440;11.126;2023-04-24T02:33:09;9.70;94.74
71096;DHT22;58753;49.440;11.126;2023-04-24T02:35:35;9.68;94.80
71096;DHT22;58753;49.440;11.126;2023-04-24T02:38:00;9.68;94.81
71096;DHT22;58753;49.440;11.126;2023-04-24T02:40:25;9.65;94.77
71096;DHT22;58753;49.440;11.126;2023-04-24T02:42:51;9.63;94.91
71096;DHT22;58753;49.440;11.126;2023-04-24T02:45:16;9.63;94.80
71096;DHT22;58753;49.440;11.126;2023-04-24T02:47:41;9.65;94.87
71096;DHT22;58753;49.440;11.126;2023-04-24T02:50:07;9.62;94.91
71096;DHT22;58753;49.440;11.126;2023-04-24T02:52:33;9.59;94.90
71096;DHT22;58753;49.440;11.126;2023-04-24T02:54:58;9.59;94.74
71096;DHT22;58753;49.440;11.126;2023-04-24T02:57:23;9.55;94.80
71096;DHT22;58753;49.440;11.126;2023-04-24T02:59:49;9.58;94.99
71096;DHT22;58753;49.440;11.126;2023-04-24T03:02:14;9.55;94.88
71096;DHT22;58753;49.440;11.126;2023-04-24T03:04:40;9.56;94.95
71096;DHT22;58753;49.440;11.126;2023-04-24T03:07:05;9.56;95.06
71096;DHT22;58753;49.440;11.126;2023-04-24T03:09:31;9.58;94.97
71096;DHT22;58753;49.440;11.126;2023-04-24T03:11:56;9.56;95.07
71096;DHT22;58753;49.440;11.126;2023-04-24T03:14:22;9.55;95.06
71096;DHT22;58753;49.440;11.126;2023-04-24T03:16:47;9.58;95.09
71096;DHT22;58753;49.440;11.126;2023-04-24T03:19:13;9.59;95.05
71096;DHT22;58753;49.440;11.126;2023-04-24T03:21:38;9.58;95.00
71096;DHT22;58753;49.440;11.126;2023-04-24T03:24:07;9.59;95.05
71096;DHT22;58753;49.440;11.126;2023-04-24T03:26:32;9.60;95.09
71096;DHT22;58753;49.440;11.126;2023-04-24T03:28:58;9.62;95.08
71096;DHT22;58753;49.440;11.126;2023-04-24T03:31:23;9.60;95.05
71096;DHT22;58753;49.440;11.126;2023-04-24T03:33:48;9.59;95.08
71096;DHT22;58753;49.440;11.126;2023-04-24T03:36:14;9.62;95.03
71096;DHT22;58753;49.440;11.126;2023-04-24T03:38:39;9.60;95.01
71096;DHT22;58753;49.440;11.126;2023-04-24T03:41:05;9.58;95.00
71096;DHT22;58753;49.440;11.126;2023-04-24T03:43:30;9.59;94.98
71096;DHT22;58753;49.440;11.126;2023-04-24T03:45:58;9.56;95.01
71096;DHT22;58753;49.440;11.126;2023-04-24T03:48:23;9.56;95.09
71096;DHT22;58753;49.440;11.126;2023-04-24T03:50:49;9.55;95.08
71096;DHT22;58753;49.440;11.126;2023-04-24T03:53:15;9.52;95.03
71096;DHT22;58753;49.440;11.126;2023-04-24T03:55:40;9.49;94.97
71096;DHT22;58753;49.440;11.126;2023-04-24T03:58:06;9.45;94.96
71096;DHT22;58753;49.440;11.126;2023-04-24T04:00:31;9.45;95.09
71096;DHT22;58753;49.440;11.126;2023-04-24T04:02:57;9.45;95.09
71096;DHT22;58753;49.440;11.126;2023-04-24T04:05:22;9.43;95.12
71096;DHT22;58753;49.440;11.126;2023-04-24T04:07:48;9.39;95.06
71096;DHT22;58753;49.440;11.126;2023-04-24T04:10:13;9.42;95.15
71096;DHT22;58753;49.440;11.126;2023-04-24T04:12:39;9.40;95.21
71096;DHT22;58753;49.440;11.126;2023-04-24T04:15:05;9.40;95.18
71096;DHT22;58753;49.440;11.126;2023-04-24T04:17:32;9.40;95.20
71096;DHT22;58753;49.440;11.126;2023-04-24T04:19:57;9.39;95.27
71096;DHT22;58753;49.440;11.126;2023-04-24T04:22:22;9.40;95.19
71096;DHT22;58753;49.440;11.126;2023-04-24T04:24:48;9.38;95.17
71096;DHT22;58753;49.440;11.126;2023-04-24T04:27:13;9.40;95.25
71096;DHT22;58753;49.440;11.126;2023-04-24T04:29:39;9.42;95.32
71096;DHT22;58753;49.440;11.126;2023-04-24T04:32:05;9.43;95.14
71096;DHT22;58753;49.440;11.126;2023-04-24T04:34:31;9.42;95.26
71096;DHT22;58753;49.440;11.126;2023-04-24T04:36:57;9.42;95.21
71096;DHT22;58753;49.440;11.126;2023-04-24T04:39:24;9.42;95.29
71096;DHT22;58753;49.440;11.126;2023-04-24T04:41:50;9.43;95.27
71096;DHT22;58753;49.440;11.126;2023-04-24T04:44:15;9.45;95.21
71096;DHT22;58753;49.440;11.126;2023-04-24T04:46:41;9.48;95.24
71096;DHT22;58753;49.440;11.126;2023-04-24T04:49:07;9.49;95.22
71096;DHT22;58753;49.440;11.126;2023-04-24T04:51:34;9.55;95.31
71096;DHT22;58753;49.440;11.126;2023-04-24T04:53:59;9.53;95.19
71096;DHT22;58753;49.440;11.126;2023-04-24T04:56:25;9.59;95.29
71096;DHT22;58753;49.440;11.126;2023-04-24T04:58:50;9.58;95.12
71096;DHT22;58753;49.440;11.126;2023-04-24T05:01:16;9.56;95.03
71096;DHT22;58753;49.440;11.126;2023-04-24T05:03:42;9.60;95.22
71096;DHT22;58753;49.440;11.126;2023-04-24T05:06:07;9.66;95.15
71096;DHT22;58753;49.440;11.126;2023-04-24T05:08:33;9.68;94.99
71096;DHT22;58753;49.440;11.126;2023-04-24T05:10:58;9.73;94.99
71096;DHT22;58753;49.440;11.126;2023-04-24T05:13:24;9.78;94.96
71096;DHT22;58753;49.440;11.126;2023-04-24T05:15:49;9.79;94.95
71096;DHT22;58753;49.440;11.126;2023-04-24T05:18:15;9.85;94.97
71096;DHT22;58753;49.440;11.126;2023-04-24T05:20:40;9.89;94.91
71096;DHT22;58753;49.440;11.126;2023-04-24T05:23:08;9.94;94.92
71096;DHT22;58753;49.440;11.126;2023-04-24T05:25:33;9.97;94.77
71096;DHT22;58753;49.440;11.126;2023-04-24T05:28:00;10.00;94.64
71096;DHT22;58753;49.440;11.126;2023-04-24T05:30:26;10.06;94.55
71096;DHT22;58753;49.440;11.126;2023-04-24T05:32:51;10.04;94.36
71096;DHT22;58753;49.440;11.126;2023-04-24T05:35:17;10.10;94.56
71096;DHT22;58753;49.440;11.126;2023-04-24T05:37:43;10.10;94.34
71096;DHT22;58753;49.440;11.126;2023-04-24T05:40:09;10.10;94.08
71096;DHT22;58753;49.440;11.126;2023-04-24T05:42:35;10.17;94.18
71096;DHT22;58753;49.440;11.126;2023-04-24T05:45:01;10.17;93.93
71096;DHT22;58753;49.440;11.126;2023-04-24T05:47:26;10.24;94.03
71096;DHT22;58753;49.440;11.126;2023-04-24T05:49:52;10.29;93.87
71096;DHT22;58753;49.440;11.126;2023-04-24T05:52:18;10.34;94.02
71096;DHT22;58753;49.440;11.126;2023-04-24T05:54:43;10.33;93.52
71096;DHT22;58753;49.440;11.126;2023-04-24T05:57:08;10.38;93.61
71096;DHT22;58753;49.440;11.126;2023-04-24T05:59:36;10.40;93.49
71096;DHT22;58753;49.440;11.126;2023-04-24T06:02:02;10.48;93.47
71096;DHT22;58753;49.440;11.126;2023-04-24T06:04:27;10.51;93.35
71096;DHT22;58753;49.440;11.126;2023-04-24T06:07:03;10.55;93.28
71096;DHT22;58753;49.440;11.126;2023-04-24T06:09:55;10.68;93.15
71096;DHT22;58753;49.440;11.126;2023-04-24T06:12:20;10.74;92.99
71096;DHT22;58753;49.440;11.126;2023-04-24T06:14:46;10.81;92.89
71096;DHT22;58753;49.440;11.126;2023-04-24T06:17:12;10.81;92.54
71096;DHT22;58753;49.440;11.126;2023-04-24T06:19:38;10.76;92.38
71096;DHT22;58753;49.440;11.126;2023-04-24T06:22:03;10.79;92.29
71096;DHT22;58753;49.440;11.126;2023-04-24T06:24:29;10.75;92.11
71096;DHT22;58753;49.440;11.126;2023-04-24T06:26:54;10.75;91.98
71096;DHT22;58753;49.440;11.126;2023-04-24T06:29:20;10.72;91.89
71096;DHT22;58753;49.440;11.126;2023-04-24T06:31:45;10.69;91.66
71096;DHT22;58753;49.440;11.126;2023-04-24T06:34:10;10.67;91.33
71096;DHT22;58753;49.440;11.126;2023-04-24T06:36:36;10.64;91.49
71096;DHT22;58753;49.440;11.126;2023-04-24T06:39:01;10.68;91.56
71096;DHT22;58753;49.440;11.126;2023-04-24T06:41:28;10.68;91.03
71096;DHT22;58753;49.440;11.126;2023-04-24T06:43:54;10.64;91.12
71096;DHT22;58753;49.440;11.126;2023-04-24T06:46:19;10.64;91.29
71096;DHT22;58753;49.440;11.126;2023-04-24T06:48:47;10.48;91.15
71096;DHT22;58753;49.440;11.126;2023-04-24T06:51:12;10.45;91.04
71096;DHT22;58753;49.440;11.126;2023-04-24T06:53:38;10.44;91.16
71096;DHT22;58753;49.440;11.126;2023-04-24T06:56:03;10.44;91.30
71096;DHT22;58753;49.440;11.126;2023-04-24T06:58:30;10.43;91.05
71096;DHT22;58753;49.440;11.126;2023-04-24T07:00:55;10.44;91.04
71096;DHT22;58753;49.440;11.126;2023-04-24T07:03:21;10.48;91.08
71096;DHT22;58753;49.440;11.126;2023-04-24T07:05:46;10.50;90.55
71096;DHT22;58753;49.440;11.126;2023-04-24T07:08:12;10.55;90.90
71096;DHT22;58753;49.440;11.126;2023-04-24T07:10:38;10.58;90.11
71096;DHT22;58753;49.440;11.126;2023-04-24T07:13:04;10.67;89.92
71096;DHT22;58753;49.440;11.126;2023-04-24T07:15:30;10.69;88.94
71096;DHT22;58753;49.440;11.126;2023-04-24T07:17:55;10.63;88.17
71096;DHT22;58753;49.440;11.126;2023-04-24T07:20:21;10.68;87.38
71096;DHT22;58753;49.440;11.126;2023-04-24T07:22:46;10.74;87.43
71096;DHT22;58753;49.440;11.126;2023-04-24T07:25:13;10.79;87.27
71096;DHT22;58753;49.440;11.126;2023-04-24T07:27:38;10.82;86.29
71096;DHT22;58753;49.440;11.126;2023-04-24T07:30:04;10.79;85.49
71096;DHT22;58753;49.440;11.126;2023-04-24T07:32:30;10.69;84.34
71096;DHT22;58753;49.440;11.126;2023-04-24T07:34:55;10.67;84.19
71096;DHT22;58753;49.440;11.126;2023-04-24T07:37:22;10.57;83.54
71096;DHT22;58753;49.440;11.126;2023-04-24T07:39:48;10.55;83.03
71096;DHT22;58753;49.440;11.126;2023-04-24T07:42:13;10.55;82.72
71096;DHT22;58753;49.440;11.126;2023-04-24T07:44:38;10.55;82.08
71096;DHT22;58753;49.440;11.126;2023-04-24T07:47:04;10.60;81.36
71096;DHT22;58753;49.440;11.126;2023-04-24T07:49:29;10.68;81.25
71096;DHT22;58753;49.440;11.126;2023-04-24T07:51:55;10.71;80.25
71096;DHT22;58753;49.440;11.126;2023-04-24T07:54:20;10.76;80.42
71096;DHT22;58753;49.440;11.126;2023-04-24T07:56:46;10.85;79.61
71096;DHT22;58753;49.440;11.126;2023-04-24T07:59:11;10.94;79.90
71096;DHT22;58753;49.440;11.126;2023-04-24T08:01:37;10.95;79.18
71096;DHT22;58753;49.440;11.126;2023-04-24T08:04:02;10.96;78.29
71096;DHT22;58753;49.440;11.126;2023-04-24T08:06:28;10.99;77.55
71096;DHT22;58753;49.440;11.126;2023-04-24T08:08:59;11.08;76.85
71096;DHT22;58753;49.440;11.126;2023-04-24T08:11:25;11.29;77.09
71096;DHT22;58753;49.440;11.126;2023-04-24T08:13:51;11.44;76.66
71096;DHT22;58753;49.440;11.126;2023-04-24T08:16:16;11.56;75.94
71096;DHT22;58753;49.440;11.126;2023-04-24T08:18:41;11.47;74.01
71096;DHT22;58753;49.440;11.126;2023-04-24T08:21:07;11.47;73.86
71096;DHT22;58753;49.440;11.126;2023-04-24T08:23:32;11.50;72.86
71096;DHT22;58753;49.440;11.126;2023-04-24T08:25:58;11.67;72.90
71096;DHT22;58753;49.440;11.126;2023-04-24T08:28:23;11.83;72.45
71096;DHT22;58753;49.440;11.126;2023-04-24T08:30:49;11.91;71.94
71096;DHT22;58753;49.440;11.126;2023-04-24T08:33:23;11.87;70.22
71096;DHT22;58753;49.440;11.126;2023-04-24T08:35:48;11.81;70.43
71096;DHT22;58753;49.440;11.126;2023-04-24T08:38:15;11.70;69.01
71096;DHT22;58753;49.440;11.126;2023-04-24T08:40:41;11.65;69.77
71096;DHT22;58753;49.440;11.126;2023-04-24T08:43:06;11.81;70.29
71096;DHT22;58753;49.440;11.126;2023-04-24T08:45:32;11.94;69.61
71096;DHT22;58753;49.440;11.126;2023-04-24T08:47:58;12.10;69.18
71096;DHT22;58753;49.440;11.126;2023-04-24T08:50:24;12.30;68.40
71096;DHT22;58753;49.440;11.126;2023-04-24T08:52:51;12.37;67.86
71096;DHT22;58753;49.440;11.126;2023-04-24T08:55:20;12.32;66.64
71096;DHT22;58753;49.440;11.126;2023-04-24T08:57:50;12.35;66.53
71096;DHT22;58753;49.440;11.126;2023-04-24T09:00:19;12.37;66.19
71096;DHT22;58753;49.440;11.126;2023-04-24T09:02:45;12.44;66.14
71096;DHT22;58753;49.440;11.126;2023-04-24T09:05:12;12.44;65.28
71096;DHT22;58753;49.440;11.126;2023-04-24T09:07:39;12.44;65.37
71096;DHT22;58753;49.440;11.126;2023-04-24T09:10:07;12.42;65.39
71096;DHT22;58753;49.440;11.126;2023-04-24T09:12:34;12.54;65.48
71096;DHT22;58753;49.440;11.126;2023-04-24T09:15:00;12.55;64.65
71096;DHT22;58753;49.440;11.126;2023-04-24T09:17:28;12.51;64.72
71096;DHT22;58753;49.440;11.126;2023-04-24T09:19:53;12.40;63.87
71096;DHT22;58753;49.440;11.126;2023-04-24T09:22:20;12.35;64.52
71096;DHT22;58753;49.440;11.126;2023-04-24T09:24:45;12.45;64.79
71096;DHT22;58753;49.440;11.126;2023-04-24T09:27:11;12.63;64.95
71096;DHT22;58753;49.440;11.126;2023-04-24T09:29:37;12.68;64.30
71096;DHT22;58753;49.440;11.126;2023-04-24T09:32:18;12.40;62.79
71096;DHT22;58753;49.440;11.126;2023-04-24T09:34:47;12.21;63.24
71096;DHT22;58753;49.440;11.126;2023-04-24T09:37:27;12.07;63.53
71096;DHT22;58753;49.440;11.126;2023-04-24T09:42:35;12.00;64.71
71096;DHT22;58753;49.440;11.126;2023-04-24T09:45:01;12.00;64.68
71096;DHT22;58753;49.440;11.126;2023-04-24T09:47:27;12.20;65.29
71096;DHT22;58753;49.440;11.126;2023-04-24T09:49:57;12.52;65.27
71096;DHT22;58753;49.440;11.126;2023-04-24T09:52:23;12.96;64.95
71096;DHT22;58753;49.440;11.126;2023-04-24T09:54:53;13.23;64.10
71096;DHT22;58753;49.440;11.126;2023-04-24T09:57:19;13.27;63.57
71096;DHT22;58753;49.440;11.126;2023-04-24T09:59:45;13.20;62.64
71096;DHT22;58753;49.440;11.126;2023-04-24T10:02:18;13.15;62.42
71096;DHT22;58753;49.440;11.126;2023-04-24T10:04:54;13.12;61.00
71096;DHT22;58753;49.440;11.126;2023-04-24T10:07:20;13.16;60.27
71096;DHT22;58753;49.440;11.126;2023-04-24T10:09:46;13.19;59.20
71096;DHT22;58753;49.440;11.126;2023-04-24T10:12:12;13.13;58.33
71096;DHT22;58753;49.440;11.126;2023-04-24T10:14:38;13.07;58.21
71096;DHT22;58753;49.440;11.126;2023-04-24T10:17:04;13.03;57.62
71096;DHT22;58753;49.440;11.126;2023-04-24T10:19:30;12.99;56.15
71096;DHT22;58753;49.440;11.126;2023-04-24T10:21:56;12.97;55.14
71096;DHT22;58753;49.440;11.126;2023-04-24T10:24:22;12.91;54.34
71096;DHT22;58753;49.440;11.126;2023-04-24T10:26:48;13.06;54.51
71096;DHT22;58753;49.440;11.126;2023-04-24T10:29:16;13.27;53.89
71096;DHT22;58753;49.440;11.126;2023-04-24T10:31:42;13.48;52.05
71096;DHT22;58753;49.440;11.126;2023-04-24T10:34:10;13.66;51.60
71096;DHT22;58753;49.440;11.126;2023-04-24T10:36:40;13.80;51.05
71096;DHT22;58753;49.440;11.126;2023-04-24T10:39:10;14.05;49.75
71096;DHT22;58753;49.440;11.126;2023-04-24T10:41:39;14.42;49.20
71096;DHT22;58753;49.440;11.126;2023-04-24T10:44:11;14.62;47.90
71096;DHT22;58753;49.440;11.126;2023-04-24T10:46:38;14.73;47.61
71096;DHT22;58753;49.440;11.126;2023-04-24T10:49:05;15.11;47.77
71096;DHT22;58753;49.440;11.126;2023-04-24T10:51:51;14.84;45.68
71096;DHT22;58753;49.440;11.126;2023-04-24T10:54:25;14.45;45.94
71096;DHT22;58753;49.440;11.126;2023-04-24T10:56:52;14.00;48.08
71096;DHT22;58753;49.440;11.126;2023-04-24T10:59:27;13.57;50.00
71096;DHT22;58753;49.440;11.126;2023-04-24T11:01:59;13.19;51.77
71096;DHT22;58753;49.440;11.126;2023-04-24T11:04:32;12.92;53.43
71096;DHT22;58753;49.440;11.126;2023-04-24T11:06:58;12.76;54.09
71096;DHT22;58753;49.440;11.126;2023-04-24T11:09:27;12.58;54.70
71096;DHT22;58753;49.440;11.126;2023-04-24T11:12:06;12.55;55.43
71096;DHT22;58753;49.440;11.126;2023-04-24T11:17:34;13.27;55.19
71096;DHT22;58753;49.440;11.126;2023-04-24T11:20:07;13.30;53.68
71096;DHT22;58753;49.440;11.126;2023-04-24T11:22:34;13.27;52.76
71096;DHT22;58753;49.440;11.126;2023-04-24T11:25:03;13.46;53.15
71096;DHT22;58753;49.440;11.126;2023-04-24T11:27:31;14.04;53.28
71096;DHT22;58753;49.440;11.126;2023-04-24T11:32:29;14.00;48.96
71096;DHT22;58753;49.440;11.126;2023-04-24T11:35:22;13.80;48.87
71096;DHT22;58753;49.440;11.126;2023-04-24T11:37:53;14.18;48.89
71096;DHT22;58753;49.440;11.126;2023-04-24T11:40:20;14.49;48.06
71096;DHT22;58753;49.440;11.126;2023-04-24T11:42:48;14.55;47.01
71096;DHT22;58753;49.440;11.126;2023-04-24T11:45:16;14.65;46.47
71096;DHT22;58753;49.440;11.126;2023-04-24T11:47:42;15.20;47.77
71096;DHT22;58753;49.440;11.126;2023-04-24T11:50:13;16.34;46.43
71096;DHT22;58753;49.440;11.126;2023-04-24T11:52:40;15.64;43.40
71096;DHT22;58753;49.440;11.126;2023-04-24T11:55:12;14.84;44.25
71096;DHT22;58753;49.440;11.126;2023-04-24T11:57:50;14.15;45.42
71096;DHT22;58753;49.440;11.126;2023-04-24T12:00:17;13.66;46.91
71096;DHT22;58753;49.440;11.126;2023-04-24T12:02:44;13.46;48.16
71096;DHT22;58753;49.440;11.126;2023-04-24T12:05:19;13.44;49.26
71096;DHT22;58753;49.440;11.126;2023-04-24T12:07:44;13.28;48.37
71096;DHT22;58753;49.440;11.126;2023-04-24T12:10:10;13.16;48.22
71096;DHT22;58753;49.440;11.126;2023-04-24T12:12:35;13.03;48.59
71096;DHT22;58753;49.440;11.126;2023-04-24T12:15:05;13.20;49.42
71096;DHT22;58753;49.440;11.126;2023-04-24T12:17:32;13.37;48.23
71096;DHT22;58753;49.440;11.126;2023-04-24T12:20:03;13.44;47.83
71096;DHT22;58753;49.440;11.126;2023-04-24T12:22:56;13.71;48.20
71096;DHT22;58753;49.440;11.126;2023-04-24T12:25:24;13.91;48.27
71096;DHT22;58753;49.440;11.126;2023-04-24T12:30:32;13.98;48.12
71096;DHT22;58753;49.440;11.126;2023-04-24T12:32:59;14.08;47.77
71096;DHT22;58753;49.440;11.126;2023-04-24T12:35:28;14.14;48.78
71096;DHT22;58753;49.440;11.126;2023-04-24T12:37:54;14.25;47.25
71096;DHT22;58753;49.440;11.126;2023-04-24T12:40:20;14.18;47.74
71096;DHT22;58753;49.440;11.126;2023-04-24T12:42:50;14.08;47.28
71096;DHT22;58753;49.440;11.126;2023-04-24T12:45:18;13.98;46.89
71096;DHT22;58753;49.440;11.126;2023-04-24T12:47:44;14.00;47.72
71096;DHT22;58753;49.440;11.126;2023-04-24T12:50:11;13.98;47.22
71096;DHT22;58753;49.440;11.126;2023-04-24T12:52:37;14.15;47.14
71096;DHT22;58753;49.440;11.126;2023-04-24T12:55:05;14.26;47.26
71096;DHT22;58753;49.440;11.126;2023-04-24T12:57:34;14.28;47.04
71096;DHT22;58753;49.440;11.126;2023-04-24T13:00:00;14.36;46.90
71096;DHT22;58753;49.440;11.126;2023-04-24T13:02:28;14.41;47.28
71096;DHT22;58753;49.440;11.126;2023-04-24T13:04:54;14.29;47.58
71096;DHT22;58753;49.440;11.126;2023-04-24T13:07:20;14.29;47.59
71096;DHT22;58753;49.440;11.126;2023-04-24T13:09:47;14.41;47.52
71096;DHT22;58753;49.440;11.126;2023-04-24T13:12:13;14.46;47.29
71096;DHT22;58753;49.440;11.126;2023-04-24T13:14:39;14.45;47.30
71096;DHT22;58753;49.440;11.126;2023-04-24T13:17:04;14.51;47.34
71096;DHT22;58753;49.440;11.126;2023-04-24T13:19:36;14.56;46.38
71096;DHT22;58753;49.440;11.126;2023-04-24T13:22:01;14.04;46.71
71096;DHT22;58753;49.440;11.126;2023-04-24T13:24:27;13.68;47.82
71096;DHT22;58753;49.440;11.126;2023-04-24T13:26:53;13.33;48.59
71096;DHT22;58753;49.440;11.126;2023-04-24T13:29:18;13.12;48.93
71096;DHT22;58753;49.440;11.126;2023-04-24T13:31:44;12.91;50.09
71096;DHT22;58753;49.440;11.126;2023-04-24T13:34:09;12.62;51.97
71096;DHT22;58753;49.440;11.126;2023-04-24T13:36:35;12.42;53.40
71096;DHT22;58753;49.440;11.126;2023-04-24T13:39:02;12.34;54.47
71096;DHT22;58753;49.440;11.126;2023-04-24T13:41:29;12.40;55.33
71096;DHT22;58753;49.440;11.126;2023-04-24T13:43:55;12.58;55.35
71096;DHT22;58753;49.440;11.126;2023-04-24T13:46:20;13.05;54.45
71096;DHT22;58753;49.440;11.126;2023-04-24T13:48:46;12.92;52.65
71096;DHT22;58753;49.440;11.126;2023-04-24T13:51:11;12.78;52.58
71096;DHT22;58753;49.440;11.126;2023-04-24T13:53:36;12.59;53.23
71096;DHT22;58753;49.440;11.126;2023-04-24T13:56:04;12.38;53.29
71096;DHT22;58753;49.440;11.126;2023-04-24T13:58:30;12.17;54.07
71096;DHT22;58753;49.440;11.126;2023-04-24T14:00:56;12.04;54.51
71096;DHT22;58753;49.440;11.126;2023-04-24T14:03:21;12.00;55.29
71096;DHT22;58753;49.440;11.126;2023-04-24T14:05:46;12.05;55.86
71096;DHT22;58753;49.440;11.126;2023-04-24T14:08:12;12.11;55.64
71096;DHT22;58753;49.440;11.126;2023-04-24T14:10:37;12.24;55.33
71096;DHT22;58753;49.440;11.126;2023-04-24T14:13:03;12.62;55.62
71096;DHT22;58753;49.440;11.126;2023-04-24T14:15:28;13.28;54.37
71096;DHT22;58753;49.440;11.126;2023-04-24T14:17:53;13.80;53.66
71096;DHT22;58753;49.440;11.126;2023-04-24T14:20:19;15.04;51.22
71096;DHT22;58753;49.440;11.126;2023-04-24T14:22:44;15.00;48.93
71096;DHT22;58753;49.440;11.126;2023-04-24T14:25:10;15.58;47.13
71096;DHT22;58753;49.440;11.126;2023-04-24T14:27:36;15.98;46.86
71096;DHT22;58753;49.440;11.126;2023-04-24T14:30:01;16.46;44.97
71096;DHT22;58753;49.440;11.126;2023-04-24T14:32:27;15.54;43.82
71096;DHT22;58753;49.440;11.126;2023-04-24T14:34:53;15.20;45.84
71096;DHT22;58753;49.440;11.126;2023-04-24T14:37:18;15.16;46.52
71096;DHT22;58753;49.440;11.126;2023-04-24T14:39:45;15.24;46.83
71096;DHT22;58753;49.440;11.126;2023-04-24T14:42:10;15.84;47.48
71096;DHT22;58753;49.440;11.126;2023-04-24T14:44:35;16.64;44.95
71096;DHT22;58753;49.440;11.126;2023-04-24T14:47:01;16.20;45.26
71096;DHT22;58753;49.440;11.126;2023-04-24T14:49:26;17.55;44.95
71096;DHT22;58753;49.440;11.126;2023-04-24T14:51:52;17.68;41.55
71096;DHT22;58753;49.440;11.126;2023-04-24T14:54:17;16.22;42.04
71096;DHT22;58753;49.440;11.126;2023-04-24T14:56:43;15.28;43.99
71096;DHT22;58753;49.440;11.126;2023-04-24T14:59:09;14.72;45.79
71096;DHT22;58753;49.440;11.126;2023-04-24T15:01:35;15.67;48.33
71096;DHT22;58753;49.440;11.126;2023-04-24T15:04:01;15.26;46.59
71096;DHT22;58753;49.440;11.126;2023-04-24T15:06:26;15.08;47.44
71096;DHT22;58753;49.440;11.126;2023-04-24T15:08:51;15.77;47.62
71096;DHT22;58753;49.440;11.126;2023-04-24T15:11:17;15.14;44.86
71096;DHT22;58753;49.440;11.126;2023-04-24T15:13:42;15.64;46.36
71096;DHT22;58753;49.440;11.126;2023-04-24T15:16:10;16.83;44.57
71096;DHT22;58753;49.440;11.126;2023-04-24T15:18:35;17.24;42.66
71096;DHT22;58753;49.440;11.126;2023-04-24T15:21:01;17.36;42.09
71096;DHT22;58753;49.440;11.126;2023-04-24T15:23:26;17.06;40.79
71096;DHT22;58753;49.440;11.126;2023-04-24T15:25:52;16.06;42.15
71096;DHT22;58753;49.440;11.126;2023-04-24T15:28:17;15.55;44.37